Time;durP1;ratioP1;P1;durP2;ratioP2;P2;SDS_P1;SDS_P2;PMS_P1;PMS_P2;Temp;Humidity;BMP_temperature;BMP_pressure;BME280_temperature;BME280_humidity;BME280_pressure;Samples;Min_cycle;Max_cycle;Signal;HPM_P1;HPM_P2
2022/08/23 00:02:07;;;;;;;3.67;3.27;;;23.30;57.60;;;;;;5056406;28;20516;-70
2022/08/23 00:04:38;;;;;;;5.17;3.30;;;23.30;57.90;;;;;;5056684;28;20841;-70
2022/08/23 00:07:07;;;;;;;3.40;3.10;;;23.20;58.00;;;;;;5057061;28;20439;-71
2022/08/23 00:09:34;;;;;;;3.63;3.10;;;23.20;58.00;;;;;;5055465;28;20446;-71
2022/08/23 00:12:10;;;;;;;4.63;2.97;;;23.20;58.10;;;;;;5055381;28;20446;-71
2022/08/23 00:14:40;;;;;;;3.13;2.87;;;23.10;58.10;;;;;;5056067;28;20461;-71
2022/08/23 00:17:10;;;;;;;3.77;3.10;;;23.10;58.10;;;;;;5054399;28;20437;-71
2022/08/23 00:19:40;;;;;;;3.90;3.27;;;23.10;58.20;;;;;;5054097;28;20503;-71
2022/08/23 00:22:08;;;;;;;3.47;3.17;;;23.10;58.40;;;;;;5054306;28;20441;-71
2022/08/23 00:24:36;;;;;;;4.50;3.23;;;23.10;58.50;;;;;;5053910;28;20473;-71
2022/08/23 00:27:06;;;;;;;6.03;3.30;;;23.10;58.60;;;;;;5053947;28;20456;-71
2022/08/23 00:29:36;;;;;;;4.80;3.30;;;23.10;58.70;;;;;;5053917;28;20438;-71
2022/08/23 00:32:04;;;;;;;3.93;3.20;;;23.00;58.70;;;;;;5053886;28;20463;-71
2022/08/23 00:34:31;;;;;;;3.77;2.87;;;23.00;59.00;;;;;;5053816;28;20466;-71
2022/08/23 00:36:59;;;;;;;4.27;2.77;;;22.80;59.10;;;;;;5053791;28;20453;-71
2022/08/23 00:39:26;;;;;;;5.20;3.50;;;22.80;59.30;;;;;;5053723;28;20459;-71
2022/08/23 00:41:58;;;;;;;5.40;3.63;;;22.70;59.50;;;;;;5053768;28;20486;-71
2022/08/23 00:47:40;;;;;;;3.83;3.10;;;22.60;59.80;;;;;;5011838;28;20420;-71
2022/08/23 00:50:15;;;;;;;4.10;2.83;;;22.50;59.90;;;;;;5047616;28;20500;-71
2022/08/23 00:52:48;;;;;;;5.20;3.77;;;22.50;59.90;;;;;;5053214;28;21010;-71
2022/08/23 00:55:16;;;;;;;4.20;3.33;;;22.50;60.00;;;;;;5053517;28;20430;-71
2022/08/23 00:57:44;;;;;;;3.80;2.53;;;22.40;60.20;;;;;;5053161;28;20456;-71
2022/08/23 01:00:12;;;;;;;6.20;3.33;;;22.40;60.40;;;;;;5053434;28;20488;-71
2022/08/23 01:02:50;;;;;;;5.20;3.73;;;22.30;60.50;;;;;;5053382;28;20472;-71
2022/08/23 01:05:18;;;;;;;5.23;2.87;;;22.30;60.70;;;;;;5053227;28;20927;-71
2022/08/23 01:07:50;;;;;;;4.20;3.53;;;22.30;60.80;;;;;;5053398;28;20485;-71
2022/08/23 01:10:23;;;;;;;5.03;3.30;;;22.20;61.00;;;;;;5053398;28;20430;-71
2022/08/23 01:12:58;;;;;;;5.97;3.37;;;22.20;61.10;;;;;;5053286;28;20532;-71
2022/08/23 01:15:28;;;;;;;4.87;3.57;;;22.20;61.30;;;;;;5053432;28;20429;-71
2022/08/23 01:18:01;;;;;;;3.97;3.00;;;22.10;61.40;;;;;;5053872;28;20437;-71
2022/08/23 01:20:34;;;;;;;3.93;3.40;;;22.10;61.50;;;;;;5053007;28;20909;-71
2022/08/23 01:23:06;;;;;;;3.67;3.20;;;22.10;61.70;;;;;;5053254;28;20519;-71
2022/08/23 01:25:34;;;;;;;7.90;3.87;;;22.10;61.90;;;;;;5057065;28;20444;-71
2022/08/23 01:28:01;;;;;;;4.73;3.40;;;22.00;62.10;;;;;;5057468;28;20440;-71
2022/08/23 01:30:32;;;;;;;7.27;3.57;;;22.10;62.40;;;;;;5056959;28;20445;-71
2022/08/23 01:33:01;;;;;;;3.63;3.10;;;22.00;62.30;;;;;;5057172;28;20475;-71
2022/08/23 01:35:36;;;;;;;4.27;3.23;;;21.90;62.40;;;;;;5057111;28;20473;-71
2022/08/23 01:38:03;;;;;;;4.73;3.40;;;21.90;62.70;;;;;;5058001;28;20444;-71
2022/08/23 01:40:31;;;;;;;3.23;2.93;;;21.80;62.70;;;;;;5057002;28;20481;-71
2022/08/23 01:43:00;;;;;;;3.33;2.90;;;21.80;63.00;;;;;;5057051;28;20687;-71
2022/08/23 01:45:29;;;;;;;5.03;3.93;;;21.70;63.00;;;;;;5057067;28;20549;-71
2022/08/23 01:47:56;;;;;;;4.60;3.77;;;21.70;63.10;;;;;;5057080;28;20445;-71
2022/08/23 01:50:24;;;;;;;4.70;3.30;;;21.60;63.30;;;;;;5056878;28;20442;-71
2022/08/23 01:52:51;;;;;;;4.00;3.60;;;21.60;63.40;;;;;;5056517;28;20841;-71
2022/08/23 01:55:19;;;;;;;4.30;3.53;;;21.50;63.50;;;;;;5056779;28;20453;-71
2022/08/23 01:57:49;;;;;;;3.77;3.30;;;21.50;64.60;;;;;;5056382;28;20468;-71
2022/08/23 02:00:17;;;;;;;5.73;3.90;;;21.50;64.10;;;;;;5056615;28;20460;-71
2022/08/23 02:02:45;;;;;;;4.10;3.33;;;21.40;63.80;;;;;;5056684;28;20476;-71
2022/08/23 02:05:12;;;;;;;11.33;3.70;;;21.50;64.10;;;;;;5056629;28;20859;-71
2022/08/23 02:07:39;;;;;;;4.03;3.17;;;21.50;64.10;;;;;;5056550;28;20442;-71
2022/08/23 02:10:08;;;;;;;3.70;3.30;;;21.40;64.20;;;;;;5056609;28;20446;-71
2022/08/23 02:12:35;;;;;;;4.43;4.00;;;21.40;64.30;;;;;;5056481;28;20842;-71
2022/08/23 02:15:02;;;;;;;3.97;3.53;;;21.30;64.30;;;;;;5056510;28;20445;-71
2022/08/23 02:17:30;;;;;;;4.83;3.60;;;21.30;64.50;;;;;;5056112;28;20936;-71
2022/08/23 02:19:57;;;;;;;3.80;3.40;;;21.30;64.60;;;;;;5056371;28;20456;-71
2022/08/23 02:22:24;;;;;;;5.10;4.10;;;21.30;64.60;;;;;;5056250;28;20500;-71
2022/08/23 02:24:50;;;;;;;7.90;3.80;;;21.30;64.80;;;;;;5056298;28;20452;-71
2022/08/23 02:27:17;;;;;;;6.90;3.70;;;21.30;64.80;;;;;;5056270;28;20442;-71
2022/08/23 02:29:45;;;;;;;5.40;3.90;;;21.20;64.70;;;;;;5056023;28;20805;-71
2022/08/23 02:32:15;;;;;;;3.73;3.40;;;21.20;64.80;;;;;;5056090;28;20450;-71
2022/08/23 02:34:44;;;;;;;5.57;4.27;;;21.10;64.90;;;;;;5056180;28;20452;-71
2022/08/23 02:37:14;;;;;;;4.60;4.07;;;21.20;65.20;;;;;;5056509;28;20452;-71
2022/08/23 02:39:42;;;;;;;4.27;3.87;;;21.10;65.10;;;;;;5057219;28;20456;-71
2022/08/23 02:42:09;;;;;;;4.20;3.80;;;21.10;65.10;;;;;;5057350;28;20839;-71
2022/08/23 02:44:37;;;;;;;4.07;3.67;;;21.10;65.30;;;;;;5058596;28;20473;-71
2022/08/23 02:47:06;;;;;;;6.40;4.10;;;21.00;65.40;;;;;;5056089;28;20449;-71
2022/08/23 02:49:33;;;;;;;5.53;4.37;;;20.90;65.50;;;;;;5055793;28;20540;-71
2022/08/23 02:52:01;;;;;;;5.50;4.43;;;20.90;65.80;;;;;;5056046;28;20443;-71
2022/08/23 02:54:28;;;;;;;6.07;4.40;;;20.90;65.90;;;;;;5055734;28;20466;-71
2022/08/23 02:56:54;;;;;;;5.00;4.00;;;20.80;65.80;;;;;;5055538;28;20476;-71
2022/08/23 02:59:21;;;;;;;7.30;3.50;;;20.70;65.70;;;;;;5055753;28;20445;-71
2022/08/23 03:01:48;;;;;;;7.13;4.07;;;20.70;65.80;;;;;;5055825;28;20484;-71
2022/08/23 03:04:15;;;;;;;5.17;3.53;;;20.60;65.80;;;;;;5055667;28;20474;-71
2022/08/23 03:06:41;;;;;;;7.53;4.37;;;20.60;66.00;;;;;;5056192;28;20868;-71
2022/08/23 03:09:10;;;;;;;6.03;4.40;;;20.60;66.10;;;;;;5056233;28;20446;-71
2022/08/23 03:11:37;;;;;;;4.83;4.20;;;20.60;66.30;;;;;;5057058;28;20915;-71
2022/08/23 03:14:04;;;;;;;9.53;4.20;;;20.60;66.50;;;;;;5057776;28;20470;-71
2022/08/23 03:16:31;;;;;;;6.83;4.00;;;20.50;66.40;;;;;;5056836;28;20824;-71
2022/08/23 03:19:00;;;;;;;8.40;4.63;;;20.50;66.60;;;;;;5055911;28;20452;-71
2022/08/23 03:21:28;;;;;;;10.03;4.47;;;20.50;66.60;;;;;;5055181;28;20504;-71
2022/08/23 03:23:54;;;;;;;10.00;4.50;;;20.50;66.70;;;;;;5055153;28;20472;-71
2022/08/23 03:26:22;;;;;;;9.60;4.17;;;20.50;66.60;;;;;;5055060;28;20453;-71
2022/08/23 03:28:49;;;;;;;7.33;4.33;;;20.50;66.70;;;;;;5055049;28;20471;-71
2022/08/23 03:31:17;;;;;;;8.37;4.23;;;20.50;66.90;;;;;;5055033;28;20491;-71
2022/08/23 03:33:43;;;;;;;10.13;5.00;;;20.50;66.90;;;;;;5054699;28;21019;-71
2022/08/23 03:36:12;;;;;;;7.77;5.00;;;20.50;66.90;;;;;;5054994;28;20454;-71
2022/08/23 03:38:40;;;;;;;8.63;4.70;;;20.40;67.00;;;;;;5054964;28;20474;-71
2022/08/23 03:41:08;;;;;;;5.77;4.40;;;20.40;67.40;;;;;;5054433;28;21014;-71
2022/08/23 03:43:36;;;;;;;8.60;4.87;;;20.40;67.60;;;;;;5054731;28;20476;-71
2022/08/23 03:46:04;;;;;;;6.73;4.43;;;20.40;67.70;;;;;;5054108;28;20450;-70
2022/08/23 03:48:31;;;;;;;4.80;3.70;;;20.40;67.70;;;;;;5054547;28;20446;-70
2022/08/23 03:50:58;;;;;;;11.40;3.80;;;20.40;67.70;;;;;;5054471;28;20951;-70
2022/08/23 03:53:25;;;;;;;8.90;4.73;;;20.30;67.60;;;;;;5055118;28;20477;-70
2022/08/23 03:55:55;;;;;;;7.77;4.50;;;20.20;67.60;;;;;;5054263;28;20446;-70
2022/08/23 03:58:22;;;;;;;8.37;4.40;;;20.10;67.70;;;;;;5054541;28;20422;-70
2022/08/23 04:00:50;;;;;;;8.13;5.43;;;20.10;67.80;;;;;;5054362;28;20541;-70
2022/08/23 04:03:17;;;;;;;10.97;4.70;;;20.00;67.70;;;;;;5054673;28;20464;-70
2022/08/23 04:05:44;;;;;;;7.70;4.90;;;20.00;67.80;;;;;;5054670;28;20471;-71
2022/08/23 04:08:12;;;;;;;6.53;4.00;;;19.90;67.80;;;;;;5054354;28;20457;-71
2022/08/23 04:10:39;;;;;;;6.90;4.03;;;19.90;68.00;;;;;;5054359;28;20452;-71
2022/08/23 04:13:07;;;;;;;11.40;4.33;;;20.00;68.30;;;;;;5054126;28;20463;-71
2022/08/23 04:15:34;;;;;;;11.27;4.20;;;19.90;68.40;;;;;;5054562;28;20866;-71
2022/08/23 04:18:03;;;;;;;8.17;4.60;;;20.00;68.50;;;;;;5054142;28;20477;-71
2022/08/23 04:20:30;;;;;;;11.57;4.93;;;20.00;68.70;;;;;;5054114;28;20452;-71
2022/08/23 04:22:57;;;;;;;13.33;4.90;;;20.00;68.90;;;;;;5053684;28;21018;-71
2022/08/23 04:25:24;;;;;;;11.70;4.70;;;20.00;70.00;;;;;;5053757;28;20941;-70
2022/08/23 04:27:51;;;;;;;10.30;4.60;;;20.00;69.40;;;;;;5053711;28;20445;-70
2022/08/23 04:30:19;;;;;;;11.00;5.60;;;20.00;69.50;;;;;;5053957;28;20457;-70
2022/08/23 04:32:46;;;;;;;9.70;4.37;;;20.00;69.70;;;;;;5054134;28;20462;-70
2022/08/23 04:35:14;;;;;;;8.73;5.47;;;19.90;69.60;;;;;;5053821;28;20456;-71
2022/08/23 04:37:41;;;;;;;10.50;5.43;;;19.90;70.60;;;;;;5053510;28;20976;-71
2022/08/23 04:42:54;;;;;;;15.63;5.80;;;19.80;70.00;;;;;;5053457;28;20852;-71
2022/08/23 04:45:21;;;;;;;14.57;5.00;;;19.80;70.00;;;;;;5053877;28;20528;-71
2022/08/23 04:47:47;;;;;;;10.97;5.10;;;19.70;70.10;;;;;;5053715;28;20454;-71
2022/08/23 04:50:16;;;;;;;18.00;5.70;;;19.70;70.20;;;;;;5053764;28;20445;-72
2022/08/23 04:52:43;;;;;;;15.90;5.70;;;19.70;70.20;;;;;;5053654;28;20465;-72
2022/08/23 04:55:11;;;;;;;13.17;5.63;;;19.70;70.30;;;;;;5053697;28;20449;-72
2022/08/23 04:57:38;;;;;;;11.47;6.00;;;19.70;70.30;;;;;;5053073;28;20528;-71
2022/08/23 05:00:06;;;;;;;9.27;5.10;;;19.80;70.60;;;;;;5053828;28;20548;-71
2022/08/23 05:02:33;;;;;;;14.27;5.70;;;19.80;70.90;;;;;;5053485;28;20486;-71
2022/08/23 05:05:02;;;;;;;12.20;5.33;;;19.80;71.00;;;;;;5053482;28;21019;-71
2022/08/23 05:07:30;;;;;;;10.13;4.97;;;19.80;71.20;;;;;;5053966;28;20438;-71
2022/08/23 05:09:57;;;;;;;11.37;5.67;;;19.90;71.80;;;;;;5054221;28;20544;-71
2022/08/23 05:12:23;;;;;;;11.03;5.77;;;19.90;71.90;;;;;;5054188;28;20439;-71
2022/08/23 05:14:50;;;;;;;11.13;4.93;;;19.90;72.10;;;;;;5054675;28;20453;-71
2022/08/23 05:17:17;;;;;;;23.40;5.80;;;19.90;72.30;;;;;;5056121;28;20450;-72
2022/08/23 05:19:44;;;;;;;16.03;6.07;;;20.00;72.50;;;;;;5056601;28;20453;-72
2022/08/23 05:22:11;;;;;;;16.23;6.03;;;20.00;72.70;;;;;;5053875;28;20488;-71
2022/08/23 05:24:39;;;;;;;10.83;5.37;;;20.00;72.70;;;;;;5053477;28;20558;-71
2022/08/23 05:27:06;;;;;;;8.80;5.27;;;20.00;72.80;;;;;;5053372;28;20445;-71
2022/08/23 05:29:33;;;;;;;13.60;5.60;;;20.10;73.20;;;;;;5054041;28;20449;-71
2022/08/23 05:31:59;;;;;;;12.77;5.27;;;20.10;73.40;;;;;;5053281;28;20449;-71
2022/08/23 05:34:26;;;;;;;16.10;6.17;;;20.20;74.00;;;;;;5053289;28;20462;-71
2022/08/23 05:36:54;;;;;;;10.43;5.97;;;20.20;74.00;;;;;;5053325;28;20454;-71
2022/08/23 05:39:20;;;;;;;14.63;6.40;;;20.20;74.20;;;;;;5053427;28;20445;-71
2022/08/23 05:41:49;;;;;;;13.93;6.90;;;20.20;74.30;;;;;;5053098;28;20468;-71
2022/08/23 05:44:15;;;;;;;7.73;5.10;;;20.20;74.50;;;;;;5053090;28;20461;-71
2022/08/23 05:46:42;;;;;;;13.30;5.50;;;20.20;74.70;;;;;;5053148;28;20468;-71
2022/08/23 05:49:09;;;;;;;17.23;5.23;;;20.30;75.10;;;;;;5053076;28;20499;-72
2022/08/23 05:51:36;;;;;;;14.47;6.00;;;20.30;75.70;;;;;;5053104;28;20442;-73
2022/08/23 05:54:07;;;;;;;7.23;5.80;;;20.30;75.80;;;;;;5053052;28;20480;-72
2022/08/23 05:56:35;;;;;;;16.77;6.57;;;20.40;76.10;;;;;;5052638;28;20972;-72
2022/08/23 05:59:07;;;;;;;10.27;6.77;;;20.40;76.20;;;;;;5052984;28;20454;-72
2022/08/23 06:01:35;;;;;;;11.47;6.33;;;20.40;76.10;;;;;;5053061;28;20835;-72
2022/08/23 06:04:04;;;;;;;11.57;5.77;;;20.40;76.30;;;;;;5053015;28;20481;-72
2022/08/23 06:06:31;;;;;;;13.77;6.77;;;20.50;76.40;;;;;;5052779;28;20453;-72
2022/08/23 06:08:58;;;;;;;10.80;6.93;;;20.60;76.50;;;;;;5053220;28;20445;-72
2022/08/23 06:11:28;;;;;;;9.53;5.97;;;20.60;76.60;;;;;;5056724;28;20460;-72
2022/08/23 06:13:56;;;;;;;7.63;6.27;;;20.60;76.30;;;;;;5056973;28;20819;-72
2022/08/23 06:16:27;;;;;;;7.90;6.47;;;20.70;75.90;;;;;;5057851;28;20445;-72
2022/08/23 06:18:56;;;;;;;11.03;7.73;;;20.70;75.80;;;;;;5058316;28;20438;-72
2022/08/23 06:21:24;;;;;;;11.13;7.83;;;20.70;75.80;;;;;;5057155;28;20853;-71
2022/08/23 06:23:52;;;;;;;13.20;7.17;;;20.80;73.70;;;;;;5056769;28;20480;-71
2022/08/23 06:26:26;;;;;;;8.87;6.40;;;20.80;73.30;;;;;;5056504;28;20456;-71
2022/08/23 06:28:56;;;;;;;14.67;6.80;;;20.90;73.40;;;;;;5056103;28;20458;-71
2022/08/23 06:31:45;;;;;;;11.90;6.50;;;21.00;72.20;;;;;;5056948;28;20450;-71
2022/08/23 06:34:17;;;;;;;8.33;5.50;;;21.10;72.30;;;;;;5056050;28;20549;-71
2022/08/23 06:36:45;;;;;;;15.07;6.37;;;21.20;71.60;;;;;;5056005;28;20488;-71
2022/08/23 06:39:12;;;;;;;9.90;7.00;;;21.30;70.90;;;;;;5055871;28;21031;-71
2022/08/23 06:41:39;;;;;;;11.20;5.87;;;21.50;70.00;;;;;;5055993;28;20822;-71
2022/08/23 06:44:06;;;;;;;15.97;5.80;;;21.60;69.10;;;;;;5055922;28;20469;-71
2022/08/23 06:46:37;;;;;;;14.13;5.87;;;21.60;68.10;;;;;;5055909;28;20504;-71
2022/08/23 06:49:05;;;;;;;8.27;6.07;;;21.70;67.20;;;;;;5056184;28;20487;-71
2022/08/23 06:51:35;;;;;;;10.07;5.47;;;21.80;66.70;;;;;;5055779;28;20454;-71
2022/08/23 06:54:06;;;;;;;12.83;5.20;;;21.90;66.80;;;;;;5056079;28;20474;-71
2022/08/23 06:56:34;;;;;;;11.43;4.60;;;21.90;66.30;;;;;;5055634;28;20468;-71
2022/08/23 06:59:03;;;;;;;9.93;5.00;;;22.10;66.20;;;;;;5055844;28;20456;-71
2022/08/23 07:01:34;;;;;;;15.10;5.80;;;22.30;66.50;;;;;;5055679;28;20444;-71
2022/08/23 07:04:04;;;;;;;10.43;6.23;;;22.40;65.30;;;;;;5055547;28;20469;-72
2022/08/23 07:06:31;;;;;;;11.10;3.90;;;22.50;64.80;;;;;;5055999;28;20426;-71
2022/08/23 07:08:59;;;;;;;6.97;5.00;;;22.60;64.10;;;;;;5055433;28;20492;-71
2022/08/23 07:11:31;;;;;;;13.53;4.80;;;22.80;63.90;;;;;;5055219;28;20916;-71
2022/08/23 07:13:59;;;;;;;15.47;4.60;;;22.90;63.50;;;;;;5055324;28;20473;-71
2022/08/23 07:16:31;;;;;;;10.43;5.13;;;23.10;63.50;;;;;;5055362;28;20524;-70
2022/08/23 07:18:58;;;;;;;10.47;4.80;;;23.20;63.40;;;;;;5055451;28;20430;-70
2022/08/23 07:21:26;;;;;;;7.80;4.67;;;23.30;62.80;;;;;;5055212;28;20445;-70
2022/08/23 07:23:53;;;;;;;11.23;4.60;;;23.40;62.40;;;;;;5055306;28;20491;-70
2022/08/23 07:26:21;;;;;;;9.73;4.80;;;23.50;61.70;;;;;;5055276;28;20862;-70
2022/08/23 07:28:48;;;;;;;10.77;4.27;;;23.60;60.90;;;;;;5055206;28;20608;-70
2022/08/23 07:31:18;;;;;;;9.30;4.40;;;23.80;60.10;;;;;;5054716;28;20821;-70
2022/08/23 07:33:46;;;;;;;15.10;5.23;;;23.90;59.90;;;;;;5055059;28;20468;-70
2022/08/23 07:36:15;;;;;;;13.40;4.37;;;24.00;59.50;;;;;;5054882;28;20882;-70
2022/08/23 07:38:44;;;;;;;9.13;3.50;;;24.20;59.30;;;;;;5055110;28;20507;-70
2022/08/23 07:41:11;;;;;;;17.83;3.77;;;24.40;59.00;;;;;;5054807;28;20426;-73
2022/08/23 07:43:38;;;;;;;8.50;4.27;;;24.60;58.50;;;;;;5056712;28;20489;-71
2022/08/23 07:46:06;;;;;;;18.10;5.60;;;24.70;58.30;;;;;;5055090;28;20481;-71
2022/08/23 07:48:33;;;;;;;11.50;4.30;;;24.90;57.80;;;;;;5055038;28;20445;-71
2022/08/23 07:51:02;;;;;;;11.20;4.00;;;25.00;57.00;;;;;;5055442;28;20449;-71
2022/08/23 07:53:29;;;;;;;8.20;3.90;;;25.20;56.60;;;;;;5056283;28;20466;-71
2022/08/23 07:55:57;;;;;;;12.50;4.47;;;25.40;56.00;;;;;;5056796;28;20452;-71
2022/08/23 07:58:25;;;;;;;9.03;4.23;;;25.50;55.40;;;;;;5056012;28;20915;-71
2022/08/23 08:00:52;;;;;;;6.80;3.43;;;25.70;54.90;;;;;;5054494;28;20446;-71
2022/08/23 08:03:21;;;;;;;14.40;5.20;;;25.90;54.60;;;;;;5054303;28;20494;-71
2022/08/23 08:05:47;;;;;;;9.13;4.07;;;26.10;54.10;;;;;;5054598;28;20445;-71
2022/08/23 08:08:14;;;;;;;7.63;4.10;;;26.30;53.70;;;;;;5054025;28;20944;-71
2022/08/23 08:10:43;;;;;;;13.60;4.40;;;26.50;53.50;;;;;;5054391;28;20500;-71
2022/08/23 08:13:11;;;;;;;11.53;3.93;;;26.70;53.00;;;;;;5053936;28;20835;-71
2022/08/23 08:15:41;;;;;;;8.40;3.13;;;26.80;51.60;;;;;;5054256;28;20434;-71
2022/08/23 08:18:08;;;;;;;9.07;3.80;;;27.00;51.10;;;;;;5053997;28;20488;-71
2022/08/23 08:20:35;;;;;;;9.93;3.03;;;27.20;51.70;;;;;;5053921;28;20446;-71
2022/08/23 08:23:04;;;;;;;6.63;3.17;;;27.50;51.10;;;;;;5054007;28;20485;-71
2022/08/23 08:25:33;;;;;;;15.00;4.83;;;27.70;50.20;;;;;;5054091;28;20434;-71
2022/08/23 08:28:00;;;;;;;11.93;4.27;;;27.90;49.20;;;;;;5053635;28;20487;-71
2022/08/23 08:30:28;;;;;;;9.13;4.23;;;28.10;49.20;;;;;;5054049;28;20441;-71
2022/08/23 08:32:56;;;;;;;14.80;4.50;;;28.20;48.10;;;;;;5053487;28;20545;-71
2022/08/23 08:35:23;;;;;;;14.10;5.17;;;28.40;46.90;;;;;;5053827;28;20516;-71
2022/08/23 08:37:50;;;;;;;8.90;4.90;;;28.60;47.00;;;;;;5053983;28;20434;-72
2022/08/23 08:40:23;;;;;;;10.67;4.57;;;28.70;46.40;;;;;;5053825;28;20456;-71
2022/08/23 08:43:06;;;;;;;9.80;4.30;;;28.80;46.00;;;;;;5053331;28;20515;-71
2022/08/23 08:45:49;;;;;;;14.60;4.13;;;28.90;45.40;;;;;;5053765;28;20442;-71
2022/08/23 08:48:22;;;;;;;8.57;3.83;;;29.10;45.10;;;;;;5053509;28;20905;-71
2022/08/23 08:50:54;;;;;;;9.53;4.03;;;29.30;44.30;;;;;;5053758;28;20426;-71
2022/08/23 08:53:28;;;;;;;13.53;4.77;;;29.50;45.20;;;;;;5053565;28;20811;-71
2022/08/23 08:55:58;;;;;;;15.20;5.10;;;29.60;44.50;;;;;;5053559;28;20444;-71
2022/08/23 08:58:30;;;;;;;12.93;3.90;;;29.90;44.00;;;;;;5053777;28;20440;-71
2022/08/23 09:00:58;;;;;;;10.27;4.57;;;30.10;42.90;;;;;;5053401;28;20466;-71
2022/08/23 09:03:32;;;;;;;11.10;4.40;;;30.20;42.70;;;;;;5053570;28;20531;-71
2022/08/23 09:06:05;;;;;;;14.30;4.47;;;30.30;42.10;;;;;;5053851;28;20434;-71
2022/08/23 09:08:49;;;;;;;8.83;4.30;;;30.40;42.20;;;;;;5053635;28;20495;-71
2022/08/23 09:11:29;;;;;;;13.40;4.50;;;30.60;42.00;;;;;;5053961;28;20430;-71
2022/08/23 09:14:26;;;;;;;8.60;4.80;;;30.80;41.50;;;;;;5053775;28;20468;-71
2022/08/23 09:17:02;;;;;;;7.30;3.73;;;31.00;40.90;;;;;;5054191;28;20820;-70
2022/08/23 09:19:33;;;;;;;8.33;4.30;;;31.10;40.50;;;;;;5054552;28;20488;-71
2022/08/23 09:22:04;;;;;;;12.47;4.67;;;31.30;40.60;;;;;;5054436;28;20454;-71
2022/08/23 09:24:31;;;;;;;7.90;4.13;;;31.50;39.70;;;;;;5054411;28;20481;-71
2022/08/23 09:26:58;;;;;;;10.33;3.77;;;31.50;39.10;;;;;;5054254;28;20445;-71
2022/08/23 09:29:27;;;;;;;9.27;4.37;;;31.50;40.10;;;;;;5053276;28;20449;-71
2022/08/23 09:32:00;;;;;;;9.10;4.60;;;31.70;39.40;;;;;;5053232;28;20446;-71
2022/08/23 09:34:40;;;;;;;10.17;4.33;;;31.90;38.00;;;;;;5053583;28;20810;-71
2022/08/23 09:37:13;;;;;;;11.87;4.93;;;32.00;38.00;;;;;;5053027;28;20984;-71
2022/08/23 09:39:43;;;;;;;11.20;3.70;;;32.30;37.00;;;;;;5053245;28;20795;-71
2022/08/23 09:42:27;;;;;;;13.73;4.23;;;32.40;36.50;;;;;;5053156;28;20449;-69
2022/08/23 09:44:55;;;;;;;8.30;3.80;;;32.60;36.70;;;;;;5054127;28;20422;-70
2022/08/23 09:47:31;;;;;;;9.13;3.90;;;32.70;37.00;;;;;;5056888;28;20814;-71
2022/08/23 09:50:09;;;;;;;10.60;4.00;;;33.00;36.60;;;;;;5056903;28;20893;-72
2022/08/23 09:52:38;;;;;;;7.23;3.70;;;33.20;36.50;;;;;;5057094;28;20433;-70
2022/08/23 09:55:08;;;;;;;6.20;3.80;;;33.50;35.50;;;;;;5057124;28;20441;-70
2022/08/23 09:57:35;;;;;;;8.77;4.40;;;33.80;35.30;;;;;;5057185;28;20461;-70
2022/08/23 10:00:21;;;;;;;9.90;3.93;;;34.00;34.40;;;;;;5057183;28;20812;-70
2022/08/23 10:02:49;;;;;;;7.13;3.60;;;34.30;33.00;;;;;;5056585;28;21003;-70
2022/08/23 10:05:19;;;;;;;10.53;4.23;;;34.40;33.20;;;;;;5056832;28;20498;-70
2022/08/23 10:07:54;;;;;;;6.07;3.43;;;34.60;33.20;;;;;;5056644;28;20826;-70
2022/08/23 10:10:27;;;;;;;8.70;3.40;;;34.80;33.30;;;;;;5057199;28;20435;-71
2022/08/23 10:12:55;;;;;;;7.47;3.70;;;35.00;31.70;;;;;;5056714;28;20475;-72
2022/08/23 10:15:27;;;;;;;9.97;3.77;;;35.20;31.40;;;;;;5056714;28;20487;-72
2022/08/23 10:18:02;;;;;;;12.50;3.37;;;35.50;31.90;;;;;;5057224;28;20465;-72
2022/08/23 10:20:37;;;;;;;7.00;3.30;;;35.90;31.80;;;;;;5056991;28;20429;-72
2022/08/23 10:23:17;;;;;;;7.80;3.80;;;36.20;30.80;;;;;;5056841;28;20488;-72
2022/08/23 10:25:53;;;;;;;9.40;3.70;;;36.60;29.70;;;;;;5057146;28;20433;-72
2022/08/23 10:31:18;;;;;;;9.47;4.23;;;37.10;29.00;;;;;;5058686;28;20273;-72
2022/08/23 10:33:52;;;;;;;5.40;3.20;;;37.40;28.90;;;;;;5059283;28;20218;-72
2022/08/23 10:36:29;;;;;;;5.60;2.97;;;37.80;28.00;;;;;;5059961;28;20218;-72
2022/08/23 10:38:57;;;;;;;9.88;3.25;;;38.20;27.60;;;;;;5056293;28;20183;-72
2022/08/23 10:41:45;;;;;;;8.25;3.78;;;38.60;26.90;;;;;;5055991;28;20583;-72
2022/08/23 10:44:25;;;;;;;10.98;3.38;;;39.10;25.70;;;;;;5056253;28;20219;-72
2022/08/23 10:47:02;;;;;;;7.07;3.60;;;39.40;25.20;;;;;;5055824;28;20701;-72
2022/08/23 10:49:31;;;;;;;6.97;2.85;;;39.70;24.30;;;;;;5055666;28;20197;-72
2022/08/23 10:51:59;;;;;;;4.80;3.08;;;40.10;23.80;;;;;;5055879;28;20207;-72
2022/08/23 10:54:34;;;;;;;4.03;2.85;;;40.50;23.00;;;;;;5055708;28;20219;-72
2022/08/23 10:57:02;;;;;;;6.43;3.10;;;40.70;22.00;;;;;;5055238;28;20626;-72
2022/08/23 10:59:32;;;;;;;6.18;3.00;;;41.10;21.50;;;;;;5055954;28;20202;-72
2022/08/23 11:02:05;;;;;;;7.85;3.00;;;41.30;21.50;;;;;;5055647;28;20202;-72
2022/08/23 11:04:46;;;;;;;5.60;2.83;;;41.60;20.90;;;;;;5055856;28;20242;-72
2022/08/23 11:07:18;;;;;;;10.27;2.90;;;41.90;21.00;;;;;;5055664;28;20195;-72
2022/08/23 11:09:56;;;;;;;8.45;2.83;;;42.30;20.70;;;;;;5055689;28;20194;-72
2022/08/23 11:12:27;;;;;;;7.15;3.35;;;42.40;21.00;;;;;;5055558;28;20274;-72
2022/08/23 11:15:11;;;;;;;5.63;2.83;;;42.60;20.30;;;;;;5055632;28;20262;-72
2022/08/23 11:17:54;;;;;;;12.02;2.67;;;43.00;20.00;;;;;;5055425;28;20191;-72
2022/08/23 11:21:01;;;;;;;4.57;2.47;;;43.30;19.60;;;;;;5055677;28;20194;-72
2022/08/23 11:23:53;;;;;;;3.88;2.53;;;43.70;19.00;;;;;;5055193;28;20230;-72
2022/08/23 11:27:03;;;;;;;5.20;2.50;;;44.10;18.90;;;;;;5055289;28;20194;-72
2022/08/23 11:29:36;;;;;;;7.90;3.25;;;44.30;18.40;;;;;;5055375;28;20187;-72
2022/08/23 11:32:20;;;;;;;5.97;2.75;;;44.60;18.20;;;;;;5055208;28;20183;-72
2022/08/23 11:34:54;;;;;;;4.38;2.15;;;45.00;18.00;;;;;;5055116;28;20563;-72
2022/08/23 11:37:28;;;;;;;4.70;2.20;;;45.20;17.70;;;;;;5055057;28;20190;-72
2022/08/23 11:40:09;;;;;;;3.25;2.00;;;45.40;17.20;;;;;;5055101;28;20190;-72
2022/08/23 11:42:51;;;;;;;4.57;2.35;;;45.50;17.10;;;;;;5055031;28;20599;-72
2022/08/23 11:45:28;;;;;;;4.18;2.17;;;45.50;18.10;;;;;;5054926;28;20194;-72
2022/08/23 11:48:12;;;;;;;6.32;2.50;;;45.30;18.00;;;;;;5054519;28;20656;-72
2022/08/23 11:50:59;;;;;;;2.58;1.98;;;45.20;18.60;;;;;;5054830;28;20198;-73
2022/08/23 11:53:48;;;;;;;5.53;2.55;;;45.30;18.40;;;;;;5054379;28;20218;-72
2022/08/23 11:56:38;;;;;;;3.47;2.05;;;45.50;17.80;;;;;;5044685;28;20210;-72
2022/08/23 11:59:55;;;;;;;5.00;1.95;;;45.40;17.80;;;;;;5054233;28;20207;-72
2022/08/23 12:02:57;;;;;;;7.55;2.30;;;45.60;18.10;;;;;;5054536;28;20209;-72
2022/08/23 12:05:41;;;;;;;5.13;2.20;;;46.20;17.40;;;;;;5022532;28;20604;-72
2022/08/23 12:08:32;;;;;;;3.70;1.95;;;46.60;17.10;;;;;;5054274;28;20237;-72
2022/08/23 12:11:07;;;;;;;5.13;1.85;;;46.90;17.00;;;;;;5054203;28;20187;-72
2022/08/23 12:13:50;;;;;;;4.32;2.17;;;46.50;17.30;;;;;;5054681;28;20218;-72
2022/08/23 12:16:37;;;;;;;4.07;2.00;;;46.50;17.00;;;;;;5054681;28;20202;-72
2022/08/23 12:19:11;;;;;;;2.75;1.85;;;46.90;16.40;;;;;;5054600;28;20197;-72
2022/08/23 12:21:46;;;;;;;5.32;2.25;;;46.90;16.90;;;;;;5054446;28;20190;-72
2022/08/23 12:24:19;;;;;;;4.25;2.10;;;46.40;16.50;;;;;;5054484;28;20233;-72
2022/08/23 12:26:57;;;;;;;7.10;2.05;;;45.50;17.60;;;;;;5054721;28;20191;-72
2022/08/23 12:29:32;;;;;;;5.38;2.00;;;45.30;18.50;;;;;;5054561;28;20691;-72
2022/08/23 12:32:07;;;;;;;6.55;2.15;;;45.70;18.30;;;;;;5055881;28;20221;-72
2022/08/23 12:34:42;;;;;;;4.28;2.22;;;46.40;18.10;;;;;;5054412;28;20735;-72
2022/08/23 12:37:20;;;;;;;3.00;1.80;;;47.20;16.80;;;;;;5054730;28;20190;-72
2022/08/23 12:39:50;;;;;;;4.38;1.90;;;47.70;16.30;;;;;;5053986;28;20552;-72
2022/08/23 12:42:24;;;;;;;6.43;2.80;;;47.80;16.00;;;;;;5053868;28;20197;-72
2022/08/23 12:45:00;;;;;;;5.18;1.83;;;47.30;15.60;;;;;;5053856;28;20669;-72
2022/08/23 12:47:27;;;;;;;3.08;1.65;;;46.60;16.40;;;;;;5054100;28;20202;-72
2022/08/23 12:49:57;;;;;;;4.53;2.38;;;45.90;17.30;;;;;;5053929;28;20203;-72
2022/08/23 12:52:26;;;;;;;4.85;1.80;;;45.80;17.30;;;;;;5053616;28;20209;-72
2022/08/23 12:54:56;;;;;;;6.28;1.98;;;46.20;17.30;;;;;;5053914;28;20193;-72
2022/08/23 12:57:30;;;;;;;3.78;1.70;;;46.60;16.20;;;;;;5053679;28;20211;-72
2022/08/23 13:00:08;;;;;;;4.25;2.20;;;46.90;16.80;;;;;;5054180;28;20194;-72
2022/08/23 13:02:36;;;;;;;4.93;2.17;;;47.20;16.30;;;;;;5054141;28;20641;-72
2022/08/23 13:05:09;;;;;;;4.32;2.17;;;46.70;16.30;;;;;;5054793;28;20219;-71
2022/08/23 13:07:37;;;;;;;6.45;2.10;;;46.80;17.40;;;;;;5055585;28;20191;-71
2022/08/23 13:10:05;;;;;;;5.90;2.20;;;47.40;17.60;;;;;;5055949;28;20190;-71
2022/08/23 13:12:33;;;;;;;3.10;1.90;;;48.10;15.50;;;;;;5056320;28;20205;-72